SABE/AEP METAR and TAF weather

Enter ICAO airport designator
Station Type Date Time Source
SABE METAR 2020/07/09 09:00 UTC NOAA

SABE 090900Z 28006KT 230V310 CAVOK 08/04 Q1019 NOSIG


Station Type Date Time Source
SABE Decoded METAR 2020/07/09 09:00 UTC NOAA

Aeroparque Bs. As. Aerodrome, Argentina (SABE) 34-34S 058-25W 6M
Jul 09, 2020 - 05:00 AM EDT / 2020.07.09 0900 UTC
Wind: from the W (280 degrees) at 7 MPH (6 KT) (direction variable):0
Visibility: greater than 7 mile(s):0
Temperature: 46 F (8 C)
Dew Point: 39 F (4 C)
Relative Humidity: 75%
Pressure (altimeter): 30.09 in. Hg (1019 hPa)
ob: SABE 090900Z 28006KT 230V310 CAVOK 08/04 Q1019 NOSIG
cycle: 9

Station Type Date Time Source
SABE TAF 2020/07/09 06:21 UTC NOAA

TAF SABE 090500Z 0906/1006 29010KT CAVOK TX14/0918Z TN07/0911Z
BECMG 0919/0921 34015KT
BECMG 1002/1004 34015G25KT

Example: see airport list